QFA2542 YPDN-WAJJ
Flight info
| Callsign | QFA2542 |
|---|---|
| Flight time | 2h 18m |
| Altitude | 41000 |
| Route | TOREX DCT TMK W68 JPA |
| Aircraft | B77L/H-SDE1E2E3FGHIJ2J3J4J5M1RWXY/LB1D1 |
Departure
| Time | 2026-04-25 07:49 |
|---|---|
| Airport | Darwin International Airport / RAAF Darwin (YPDN) |
Arrival
| Time | 2026-04-25 10:07 |
|---|---|
| Airport | Dortheys Hiyo Eluay International Airport (WAJJ) |
| Time | Latitude | Longitude | Altitude | Speed | Heading |
|---|---|---|---|---|---|
| 2026-04-25 07:45 | -12.40992 | 130.87847 | 101 ft | 0 kts | 18° |
| 2026-04-25 07:45 | -12.40974 | 130.87836 | 100 ft | 9 kts | 316° |
| 2026-04-25 07:45 | -12.40954 | 130.87744 | 102 ft | 15 kts | 271° |
| 2026-04-25 07:46 | -12.40967 | 130.87634 | 101 ft | 16 kts | 238° |
| 2026-04-25 07:46 | -12.41057 | 130.87568 | 108 ft | 16 kts | 212° |
| 2026-04-25 07:46 | -12.41073 | 130.87468 | 107 ft | 16 kts | 292° |
| 2026-04-25 07:46 | -12.41028 | 130.87360 | 106 ft | 17 kts | 292° |
| 2026-04-25 07:47 | -12.41006 | 130.87277 | 105 ft | 5 kts | 266° |
| 2026-04-25 07:47 | -12.41034 | 130.87253 | 105 ft | 6 kts | 198° |
| 2026-04-25 07:47 | -12.41078 | 130.87239 | 107 ft | 7 kts | 198° |
| 2026-04-25 07:47 | -12.41124 | 130.87224 | 107 ft | 7 kts | 197° |
| 2026-04-25 07:48 | -12.41166 | 130.87238 | 107 ft | 6 kts | 122° |
| 2026-04-25 07:48 | -12.41187 | 130.87284 | 106 ft | 8 kts | 108° |
| 2026-04-25 07:48 | -12.41276 | 130.87541 | 107 ft | 82 kts | 110° |
| 2026-04-25 07:48 | -12.41554 | 130.88360 | 100 ft | 158 kts | 109° |
| 2026-04-25 07:49 | -12.41927 | 130.89489 | 768 ft | 163 kts | 107° |
| 2026-04-25 07:49 | -12.42226 | 130.90584 | 1761 ft | 157 kts | 101° |
| 2026-04-25 07:49 | -12.42348 | 130.91689 | 2686 ft | 159 kts | 91° |
| 2026-04-25 07:49 | -12.42217 | 130.92840 | 3637 ft | 167 kts | 78° |
| 2026-04-25 07:50 | -12.41781 | 130.93940 | 4700 ft | 168 kts | 62° |
| 2026-04-25 07:50 | -12.40987 | 130.94845 | 5692 ft | 177 kts | 41° |
| 2026-04-25 07:50 | -12.39832 | 130.95438 | 6476 ft | 197 kts | 20° |
| 2026-04-25 07:50 | -12.38431 | 130.95888 | 6883 ft | 228 kts | 22° |
| 2026-04-25 07:51 | -12.36821 | 130.96518 | 7160 ft | 268 kts | 24° |
| 2026-04-25 07:51 | -12.35020 | 130.97288 | 7853 ft | 288 kts | 25° |
| 2026-04-25 07:51 | -12.33165 | 130.98127 | 8983 ft | 293 kts | 25° |
| 2026-04-25 07:51 | -12.31330 | 130.99000 | 10105 ft | 298 kts | 25° |
| 2026-04-25 07:52 | -12.29452 | 130.99926 | 11174 ft | 302 kts | 26° |
| 2026-04-25 07:52 | -12.27556 | 131.00887 | 12233 ft | 306 kts | 26° |
| 2026-04-25 07:52 | -12.25640 | 131.01877 | 13288 ft | 311 kts | 27° |
| 2026-04-25 07:52 | -12.23701 | 131.02893 | 14266 ft | 315 kts | 27° |
| 2026-04-25 07:53 | -12.21748 | 131.03927 | 15264 ft | 318 kts | 28° |
| 2026-04-25 07:53 | -12.19780 | 131.04976 | 16283 ft | 320 kts | 29° |
| 2026-04-25 07:53 | -12.17785 | 131.06044 | 17228 ft | 326 kts | 29° |
| 2026-04-25 07:53 | -12.16451 | 131.06760 | 17854 ft | 329 kts | 29° |
| 2026-04-25 07:54 | -12.14621 | 131.07744 | 18641 ft | 333 kts | 30° |
| 2026-04-25 07:54 | -12.12582 | 131.08842 | 19449 ft | 338 kts | 29° |
| 2026-04-25 07:54 | -12.10489 | 131.09970 | 20284 ft | 342 kts | 29° |
| 2026-04-25 07:54 | -12.08361 | 131.11116 | 21092 ft | 348 kts | 29° |
| 2026-04-25 07:55 | -12.06204 | 131.12278 | 21903 ft | 353 kts | 29° |
| 2026-04-25 07:55 | -12.04006 | 131.13461 | 22713 ft | 359 kts | 29° |
| 2026-04-25 07:55 | -12.01777 | 131.14662 | 23521 ft | 364 kts | 29° |
| 2026-04-25 07:55 | -11.99515 | 131.15880 | 24198 ft | 370 kts | 29° |
| 2026-04-25 07:56 | -11.97224 | 131.17113 | 24903 ft | 374 kts | 29° |
| 2026-04-25 07:56 | -11.94902 | 131.18363 | 25622 ft | 379 kts | 29° |
| 2026-04-25 07:56 | -11.92554 | 131.19627 | 26338 ft | 384 kts | 29° |
| 2026-04-25 07:56 | -11.90180 | 131.20906 | 27034 ft | 389 kts | 29° |
| 2026-04-25 07:57 | -11.87802 | 131.22184 | 27719 ft | 394 kts | 29° |
| 2026-04-25 07:57 | -11.85360 | 131.23498 | 28426 ft | 399 kts | 28° |
| 2026-04-25 07:57 | -11.82892 | 131.24825 | 29143 ft | 404 kts | 28° |
| 2026-04-25 07:57 | -11.80391 | 131.26170 | 29847 ft | 409 kts | 28° |
| 2026-04-25 07:58 | -11.77857 | 131.27532 | 30470 ft | 413 kts | 28° |
| 2026-04-25 07:58 | -11.75303 | 131.28904 | 31111 ft | 415 kts | 28° |
| 2026-04-25 07:58 | -11.72738 | 131.30281 | 31787 ft | 416 kts | 28° |
| 2026-04-25 07:58 | -11.70169 | 131.31661 | 32422 ft | 418 kts | 28° |
| 2026-04-25 07:59 | -11.67616 | 131.33031 | 33003 ft | 421 kts | 28° |
| 2026-04-25 07:59 | -11.65014 | 131.34428 | 33580 ft | 423 kts | 28° |
| 2026-04-25 07:59 | -11.62405 | 131.35829 | 34169 ft | 424 kts | 27° |
| 2026-04-25 07:59 | -11.59787 | 131.37234 | 34618 ft | 428 kts | 27° |
| 2026-04-25 08:00 | -11.57143 | 131.38653 | 35111 ft | 429 kts | 27° |
| 2026-04-25 08:00 | -11.54501 | 131.40071 | 35584 ft | 431 kts | 27° |
| 2026-04-25 08:00 | -11.51837 | 131.41500 | 35988 ft | 434 kts | 27° |
| 2026-04-25 08:00 | -11.49152 | 131.42940 | 36368 ft | 438 kts | 27° |
| 2026-04-25 08:01 | -11.46448 | 131.44390 | 36793 ft | 439 kts | 27° |
| 2026-04-25 08:01 | -11.43729 | 131.45847 | 37160 ft | 443 kts | 27° |
| 2026-04-25 08:01 | -11.41002 | 131.47309 | 37580 ft | 444 kts | 27° |
| 2026-04-25 08:01 | -11.38258 | 131.48779 | 37954 ft | 446 kts | 27° |
| 2026-04-25 08:02 | -11.35494 | 131.50260 | 38272 ft | 450 kts | 27° |
| 2026-04-25 08:02 | -11.32713 | 131.51750 | 38608 ft | 452 kts | 27° |
| 2026-04-25 08:02 | -11.29923 | 131.53243 | 38894 ft | 454 kts | 27° |
| 2026-04-25 08:02 | -11.27123 | 131.54742 | 39190 ft | 455 kts | 27° |
| 2026-04-25 08:03 | -11.24314 | 131.56246 | 39411 ft | 458 kts | 27° |
| 2026-04-25 08:03 | -11.21527 | 131.57737 | 39628 ft | 461 kts | 27° |
| 2026-04-25 08:03 | -11.18678 | 131.59261 | 39829 ft | 463 kts | 27° |
| 2026-04-25 08:03 | -11.15778 | 131.60812 | 40036 ft | 466 kts | 27° |
| 2026-04-25 08:04 | -11.12943 | 131.62329 | 40259 ft | 467 kts | 27° |
| 2026-04-25 08:04 | -11.10022 | 131.63891 | 40471 ft | 469 kts | 27° |
| 2026-04-25 08:04 | -11.07160 | 131.65421 | 40584 ft | 473 kts | 28° |
| 2026-04-25 08:04 | -11.04234 | 131.66984 | 40742 ft | 476 kts | 28° |
| 2026-04-25 08:05 | -10.98340 | 131.70133 | 40896 ft | 478 kts | 28° |
| 2026-04-25 08:05 | -10.92504 | 131.73249 | 40899 ft | 468 kts | 28° |
| 2026-04-25 08:06 | -10.86790 | 131.76299 | 40905 ft | 464 kts | 28° |
| 2026-04-25 08:06 | -10.81065 | 131.79353 | 40912 ft | 463 kts | 28° |
| 2026-04-25 08:07 | -10.75355 | 131.82398 | 40904 ft | 464 kts | 28° |
| 2026-04-25 08:07 | -10.69629 | 131.85451 | 40916 ft | 465 kts | 28° |
| 2026-04-25 08:08 | -10.63882 | 131.88513 | 40917 ft | 467 kts | 28° |
| 2026-04-25 08:08 | -10.58113 | 131.91585 | 40907 ft | 468 kts | 28° |
| 2026-04-25 08:09 | -10.52325 | 131.94667 | 40902 ft | 470 kts | 28° |
| 2026-04-25 08:09 | -10.46528 | 131.97752 | 40910 ft | 471 kts | 28° |
| 2026-04-25 08:10 | -10.40756 | 132.00821 | 40911 ft | 471 kts | 28° |
| 2026-04-25 08:10 | -10.34934 | 132.03917 | 40898 ft | 472 kts | 28° |
| 2026-04-25 08:11 | -10.29118 | 132.07008 | 40907 ft | 472 kts | 28° |
| 2026-04-25 08:11 | -10.23294 | 132.10101 | 40899 ft | 472 kts | 28° |
| 2026-04-25 08:12 | -10.17478 | 132.13190 | 40899 ft | 471 kts | 28° |
| 2026-04-25 08:12 | -10.11670 | 132.16274 | 40903 ft | 471 kts | 29° |
| 2026-04-25 08:13 | -10.05896 | 132.19337 | 40897 ft | 470 kts | 29° |
| 2026-04-25 08:14 | -9.97199 | 132.23949 | 40895 ft | 470 kts | 29° |
| 2026-04-25 08:14 | -9.91401 | 132.27022 | 40906 ft | 469 kts | 29° |
| 2026-04-25 08:15 | -9.85622 | 132.30084 | 40896 ft | 469 kts | 29° |
| 2026-04-25 08:15 | -9.79837 | 132.33147 | 40903 ft | 468 kts | 29° |
| 2026-04-25 08:16 | -9.74103 | 132.36184 | 40904 ft | 467 kts | 29° |
| 2026-04-25 08:16 | -9.68326 | 132.39241 | 40900 ft | 467 kts | 29° |
| 2026-04-25 08:17 | -9.62599 | 132.42269 | 40900 ft | 466 kts | 29° |
| 2026-04-25 08:17 | -9.56848 | 132.45311 | 40903 ft | 466 kts | 29° |
| 2026-04-25 08:18 | -9.51106 | 132.48347 | 40899 ft | 465 kts | 29° |
| 2026-04-25 08:18 | -9.45368 | 132.51378 | 40902 ft | 465 kts | 29° |
| 2026-04-25 08:19 | -9.39637 | 132.54405 | 40899 ft | 464 kts | 29° |
| 2026-04-25 08:19 | -9.33906 | 132.57431 | 40895 ft | 464 kts | 29° |
| 2026-04-25 08:20 | -9.28186 | 132.60451 | 40894 ft | 463 kts | 29° |
| 2026-04-25 08:20 | -9.23428 | 132.62962 | 40891 ft | 463 kts | 29° |
| 2026-04-25 08:21 | -9.17752 | 132.65955 | 40901 ft | 463 kts | 29° |
| 2026-04-25 08:21 | -9.12032 | 132.68971 | 40902 ft | 463 kts | 28° |
| 2026-04-25 08:22 | -9.06308 | 132.71988 | 40895 ft | 464 kts | 28° |
| 2026-04-25 08:22 | -9.00567 | 132.75013 | 40897 ft | 466 kts | 28° |
| 2026-04-25 08:23 | -8.94809 | 132.78045 | 40897 ft | 467 kts | 28° |
| 2026-04-25 08:23 | -8.89066 | 132.81069 | 40891 ft | 469 kts | 28° |
| 2026-04-25 08:24 | -8.83265 | 132.84122 | 40891 ft | 470 kts | 28° |
| 2026-04-25 08:24 | -8.77446 | 132.87183 | 40886 ft | 472 kts | 28° |
| 2026-04-25 08:25 | -8.71604 | 132.90256 | 40900 ft | 473 kts | 28° |
| 2026-04-25 08:25 | -8.65754 | 132.93331 | 40900 ft | 474 kts | 29° |
| 2026-04-25 08:26 | -8.59930 | 132.96392 | 40894 ft | 475 kts | 29° |
| 2026-04-25 08:26 | -8.54064 | 132.99473 | 40896 ft | 475 kts | 29° |
| 2026-04-25 08:27 | -8.48194 | 133.02555 | 40889 ft | 475 kts | 29° |
| 2026-04-25 08:27 | -8.42337 | 133.05632 | 40890 ft | 474 kts | 29° |
| 2026-04-25 08:28 | -8.36496 | 133.08697 | 40895 ft | 472 kts | 29° |
| 2026-04-25 08:28 | -8.30672 | 133.11752 | 40892 ft | 470 kts | 29° |
| 2026-04-25 08:29 | -8.24873 | 133.14793 | 40892 ft | 469 kts | 29° |
| 2026-04-25 08:29 | -8.19131 | 133.17803 | 40893 ft | 467 kts | 29° |
| 2026-04-25 08:30 | -8.13370 | 133.20824 | 40889 ft | 466 kts | 29° |
| 2026-04-25 08:30 | -8.07616 | 133.23838 | 40888 ft | 465 kts | 29° |
| 2026-04-25 08:31 | -8.01885 | 133.26841 | 40888 ft | 464 kts | 29° |
| 2026-04-25 08:31 | -7.96168 | 133.29834 | 40884 ft | 462 kts | 29° |
| 2026-04-25 08:32 | -7.90461 | 133.32822 | 40891 ft | 462 kts | 29° |
| 2026-04-25 08:32 | -7.84797 | 133.35785 | 40887 ft | 456 kts | 29° |
| 2026-04-25 08:33 | -7.79152 | 133.38738 | 40887 ft | 456 kts | 29° |
| 2026-04-25 08:33 | -7.73518 | 133.41685 | 40897 ft | 458 kts | 29° |
| 2026-04-25 08:34 | -7.67858 | 133.44645 | 40889 ft | 456 kts | 28° |
| 2026-04-25 08:34 | -7.62257 | 133.47572 | 40888 ft | 456 kts | 29° |
| 2026-04-25 08:35 | -7.56619 | 133.50519 | 40893 ft | 458 kts | 28° |
| 2026-04-25 08:35 | -7.50950 | 133.53481 | 40892 ft | 459 kts | 29° |
| 2026-04-25 08:36 | -7.45288 | 133.56437 | 40880 ft | 458 kts | 29° |
| 2026-04-25 08:36 | -7.39949 | 133.59925 | 40891 ft | 457 kts | 40° |
| 2026-04-25 08:37 | -7.35374 | 133.64352 | 40887 ft | 456 kts | 49° |
| 2026-04-25 08:37 | -7.31238 | 133.69119 | 40879 ft | 453 kts | 50° |
| 2026-04-25 08:38 | -7.27090 | 133.73946 | 40894 ft | 457 kts | 50° |
| 2026-04-25 08:38 | -7.22919 | 133.78759 | 40887 ft | 456 kts | 50° |
| 2026-04-25 08:39 | -7.18723 | 133.83571 | 40887 ft | 457 kts | 50° |
| 2026-04-25 08:39 | -7.14513 | 133.88388 | 40892 ft | 457 kts | 50° |
| 2026-04-25 08:40 | -7.10310 | 133.93196 | 40892 ft | 457 kts | 50° |
| 2026-04-25 08:40 | -7.06100 | 133.98010 | 40890 ft | 458 kts | 50° |
| 2026-04-25 08:41 | -7.01872 | 134.02846 | 40890 ft | 462 kts | 50° |
| 2026-04-25 08:41 | -6.97615 | 134.07714 | 40898 ft | 469 kts | 50° |
| 2026-04-25 08:42 | -6.93286 | 134.12661 | 40892 ft | 471 kts | 50° |
| 2026-04-25 08:42 | -6.88945 | 134.17621 | 40893 ft | 472 kts | 50° |
| 2026-04-25 08:43 | -6.84607 | 134.22575 | 40886 ft | 471 kts | 50° |
| 2026-04-25 08:43 | -6.80277 | 134.27519 | 40888 ft | 469 kts | 50° |
| 2026-04-25 08:44 | -6.75967 | 134.32439 | 40882 ft | 468 kts | 50° |
| 2026-04-25 08:44 | -6.71700 | 134.37308 | 40886 ft | 466 kts | 50° |
| 2026-04-25 08:45 | -6.67421 | 134.42190 | 40891 ft | 464 kts | 50° |
| 2026-04-25 08:45 | -6.63155 | 134.47056 | 40890 ft | 463 kts | 50° |
| 2026-04-25 08:46 | -6.58900 | 134.51908 | 40886 ft | 462 kts | 50° |
| 2026-04-25 08:46 | -6.54649 | 134.56754 | 40891 ft | 462 kts | 50° |
| 2026-04-25 08:47 | -6.50396 | 134.61600 | 40895 ft | 462 kts | 50° |
| 2026-04-25 08:47 | -6.46138 | 134.66452 | 40891 ft | 463 kts | 50° |
| 2026-04-25 08:48 | -6.41897 | 134.71282 | 40892 ft | 463 kts | 50° |
| 2026-04-25 08:48 | -6.37624 | 134.76147 | 40896 ft | 465 kts | 50° |
| 2026-04-25 08:49 | -6.33338 | 134.81027 | 40892 ft | 466 kts | 50° |
| 2026-04-25 08:49 | -6.29043 | 134.85914 | 40887 ft | 466 kts | 50° |
| 2026-04-25 08:50 | -6.24743 | 134.90806 | 40892 ft | 467 kts | 50° |
| 2026-04-25 08:50 | -6.20433 | 134.95709 | 40884 ft | 468 kts | 50° |
| 2026-04-25 08:51 | -6.16119 | 135.00614 | 40892 ft | 468 kts | 50° |
| 2026-04-25 08:51 | -6.11803 | 135.05521 | 40888 ft | 469 kts | 50° |
| 2026-04-25 08:52 | -6.07485 | 135.10428 | 40890 ft | 469 kts | 50° |
| 2026-04-25 08:52 | -6.03165 | 135.15336 | 40887 ft | 468 kts | 50° |
| 2026-04-25 08:53 | -5.98871 | 135.20213 | 40890 ft | 468 kts | 50° |
| 2026-04-25 08:53 | -5.94565 | 135.25103 | 40892 ft | 467 kts | 50° |
| 2026-04-25 08:54 | -5.90261 | 135.29989 | 40888 ft | 466 kts | 50° |
| 2026-04-25 08:54 | -5.85968 | 135.34863 | 40888 ft | 466 kts | 50° |
| 2026-04-25 08:55 | -5.81675 | 135.39734 | 40881 ft | 465 kts | 50° |
| 2026-04-25 08:55 | -5.77387 | 135.44599 | 40885 ft | 465 kts | 50° |
| 2026-04-25 08:56 | -5.73099 | 135.49462 | 40888 ft | 464 kts | 50° |
| 2026-04-25 08:56 | -5.68849 | 135.54281 | 40879 ft | 464 kts | 50° |
| 2026-04-25 08:57 | -5.64565 | 135.59138 | 40880 ft | 464 kts | 50° |
| 2026-04-25 08:57 | -5.60282 | 135.63992 | 40880 ft | 464 kts | 50° |
| 2026-04-25 08:58 | -5.56003 | 135.68841 | 40879 ft | 464 kts | 50° |
| 2026-04-25 08:58 | -5.51724 | 135.73689 | 40886 ft | 464 kts | 50° |
| 2026-04-25 08:59 | -5.47474 | 135.78501 | 40885 ft | 463 kts | 50° |
| 2026-04-25 08:59 | -5.43197 | 135.83344 | 40882 ft | 463 kts | 50° |
| 2026-04-25 09:00 | -5.38916 | 135.88191 | 40881 ft | 463 kts | 50° |
| 2026-04-25 09:00 | -5.34644 | 135.93025 | 40878 ft | 463 kts | 50° |
| 2026-04-25 09:01 | -5.30377 | 135.97853 | 40879 ft | 462 kts | 50° |
| 2026-04-25 09:01 | -5.26112 | 136.02678 | 40883 ft | 462 kts | 50° |
| 2026-04-25 09:02 | -5.21850 | 136.07498 | 40885 ft | 461 kts | 50° |
| 2026-04-25 09:02 | -5.17597 | 136.12307 | 40886 ft | 461 kts | 50° |
| 2026-04-25 09:03 | -5.13344 | 136.17116 | 40879 ft | 460 kts | 50° |
| 2026-04-25 09:03 | -5.09098 | 136.21914 | 40883 ft | 460 kts | 50° |
| 2026-04-25 09:04 | -5.04884 | 136.26677 | 40886 ft | 459 kts | 50° |
| 2026-04-25 09:04 | -5.00637 | 136.31476 | 40885 ft | 459 kts | 50° |
| 2026-04-25 09:05 | -4.96405 | 136.36256 | 40885 ft | 458 kts | 50° |
| 2026-04-25 09:05 | -4.92172 | 136.41036 | 40888 ft | 458 kts | 50° |
| 2026-04-25 09:06 | -4.87938 | 136.45817 | 40886 ft | 458 kts | 50° |
| 2026-04-25 09:06 | -4.83710 | 136.50590 | 40884 ft | 458 kts | 50° |
| 2026-04-25 09:07 | -4.79508 | 136.55332 | 40879 ft | 457 kts | 50° |
| 2026-04-25 09:07 | -4.75278 | 136.60106 | 40877 ft | 458 kts | 50° |
| 2026-04-25 09:08 | -4.71052 | 136.64874 | 40883 ft | 458 kts | 50° |
| 2026-04-25 09:08 | -4.67534 | 136.68843 | 40885 ft | 458 kts | 50° |
| 2026-04-25 09:09 | -4.63300 | 136.73619 | 40885 ft | 458 kts | 50° |
| 2026-04-25 09:09 | -4.59067 | 136.78393 | 40890 ft | 458 kts | 50° |
| 2026-04-25 09:10 | -4.54828 | 136.83172 | 40898 ft | 459 kts | 50° |
| 2026-04-25 09:10 | -4.50992 | 136.88271 | 40906 ft | 457 kts | 59° |
| 2026-04-25 09:11 | -4.46623 | 136.96736 | 40928 ft | 456 kts | 65° |
| 2026-04-25 09:11 | -4.43814 | 137.02455 | 40941 ft | 457 kts | 65° |
| 2026-04-25 09:12 | -4.40978 | 137.08172 | 40959 ft | 458 kts | 64° |
| 2026-04-25 09:12 | -4.38145 | 137.13851 | 40977 ft | 459 kts | 64° |
| 2026-04-25 09:13 | -4.35281 | 137.19581 | 40994 ft | 460 kts | 64° |
| 2026-04-25 09:13 | -4.32413 | 137.25319 | 41010 ft | 461 kts | 64° |
| 2026-04-25 09:14 | -4.29541 | 137.31066 | 41019 ft | 461 kts | 65° |
| 2026-04-25 09:14 | -4.26668 | 137.36815 | 41037 ft | 462 kts | 64° |
| 2026-04-25 09:15 | -4.23786 | 137.42579 | 41044 ft | 462 kts | 65° |
| 2026-04-25 09:15 | -4.20922 | 137.48306 | 41056 ft | 463 kts | 65° |
| 2026-04-25 09:16 | -4.18038 | 137.54073 | 41069 ft | 462 kts | 65° |
| 2026-04-25 09:16 | -4.15155 | 137.59835 | 41081 ft | 462 kts | 65° |
| 2026-04-25 09:17 | -4.10833 | 137.68473 | 41068 ft | 462 kts | 65° |
| 2026-04-25 09:18 | -4.07956 | 137.74220 | 41089 ft | 461 kts | 65° |
| 2026-04-25 09:18 | -4.05084 | 137.79957 | 41102 ft | 461 kts | 65° |
| 2026-04-25 09:19 | -4.02207 | 137.85705 | 41099 ft | 462 kts | 65° |
| 2026-04-25 09:19 | -3.99324 | 137.91461 | 41091 ft | 462 kts | 65° |
| 2026-04-25 09:20 | -3.96455 | 137.97191 | 41104 ft | 463 kts | 65° |
| 2026-04-25 09:20 | -3.93569 | 138.02952 | 41102 ft | 463 kts | 65° |
| 2026-04-25 09:21 | -3.90680 | 138.08726 | 41107 ft | 463 kts | 65° |
| 2026-04-25 09:21 | -3.87793 | 138.14498 | 41099 ft | 463 kts | 65° |
| 2026-04-25 09:22 | -3.84905 | 138.20270 | 41096 ft | 464 kts | 65° |
| 2026-04-25 09:22 | -3.82019 | 138.26038 | 41091 ft | 463 kts | 65° |
| 2026-04-25 09:23 | -3.79131 | 138.31805 | 41089 ft | 463 kts | 65° |
| 2026-04-25 09:23 | -3.76242 | 138.37578 | 41071 ft | 463 kts | 65° |
| 2026-04-25 09:24 | -3.73356 | 138.43342 | 41063 ft | 463 kts | 65° |
| 2026-04-25 09:24 | -3.70471 | 138.49100 | 41049 ft | 463 kts | 65° |
| 2026-04-25 09:25 | -3.67586 | 138.54857 | 41046 ft | 462 kts | 65° |
| 2026-04-25 09:25 | -3.64725 | 138.60570 | 41029 ft | 462 kts | 65° |
| 2026-04-25 09:26 | -3.61837 | 138.66332 | 41018 ft | 462 kts | 65° |
| 2026-04-25 09:26 | -3.58950 | 138.72094 | 41000 ft | 463 kts | 65° |
| 2026-04-25 09:27 | -3.56061 | 138.77854 | 40987 ft | 462 kts | 65° |
| 2026-04-25 09:27 | -3.53206 | 138.83546 | 40729 ft | 452 kts | 65° |
| 2026-04-25 09:27 | -3.51821 | 138.86307 | 40355 ft | 447 kts | 66° |
| 2026-04-25 09:28 | -3.50431 | 138.89079 | 39909 ft | 443 kts | 66° |
| 2026-04-25 09:28 | -3.49055 | 138.91823 | 39417 ft | 440 kts | 66° |
| 2026-04-25 09:28 | -3.47687 | 138.94552 | 38953 ft | 436 kts | 66° |
| 2026-04-25 09:28 | -3.46328 | 138.97262 | 38517 ft | 433 kts | 66° |
| 2026-04-25 09:29 | -3.44983 | 138.99946 | 37981 ft | 430 kts | 66° |
| 2026-04-25 09:29 | -3.43646 | 139.02611 | 37514 ft | 426 kts | 65° |
| 2026-04-25 09:29 | -3.42320 | 139.05252 | 37063 ft | 422 kts | 65° |
| 2026-04-25 09:29 | -3.41007 | 139.07860 | 36625 ft | 418 kts | 65° |
| 2026-04-25 09:30 | -3.39626 | 139.10408 | 36198 ft | 415 kts | 63° |
| 2026-04-25 09:30 | -3.38189 | 139.12902 | 35764 ft | 412 kts | 62° |
| 2026-04-25 09:30 | -3.36742 | 139.15362 | 35333 ft | 409 kts | 62° |
| 2026-04-25 09:30 | -3.35301 | 139.17805 | 34891 ft | 407 kts | 62° |
| 2026-04-25 09:31 | -3.33871 | 139.20239 | 34461 ft | 404 kts | 62° |
| 2026-04-25 09:31 | -3.32457 | 139.22662 | 34005 ft | 403 kts | 62° |
| 2026-04-25 09:31 | -3.31049 | 139.25086 | 33503 ft | 401 kts | 62° |
| 2026-04-25 09:31 | -3.29654 | 139.27495 | 33050 ft | 399 kts | 62° |
| 2026-04-25 09:32 | -3.28288 | 139.29858 | 32595 ft | 396 kts | 62° |
| 2026-04-25 09:32 | -3.26911 | 139.32241 | 32156 ft | 394 kts | 62° |
| 2026-04-25 09:32 | -3.25543 | 139.34611 | 31729 ft | 391 kts | 62° |
| 2026-04-25 09:32 | -3.24184 | 139.36964 | 31294 ft | 389 kts | 62° |
| 2026-04-25 09:33 | -3.22834 | 139.39301 | 30861 ft | 387 kts | 62° |
| 2026-04-25 09:33 | -3.21485 | 139.41637 | 30446 ft | 385 kts | 62° |
| 2026-04-25 09:33 | -3.20145 | 139.43957 | 30014 ft | 384 kts | 62° |
| 2026-04-25 09:33 | -3.18826 | 139.46242 | 29538 ft | 383 kts | 62° |
| 2026-04-25 09:34 | -3.17497 | 139.48541 | 29075 ft | 380 kts | 62° |
| 2026-04-25 09:34 | -3.16175 | 139.50828 | 28635 ft | 378 kts | 62° |
| 2026-04-25 09:34 | -3.14865 | 139.53096 | 28208 ft | 375 kts | 62° |
| 2026-04-25 09:34 | -3.13562 | 139.55350 | 27793 ft | 372 kts | 62° |
| 2026-04-25 09:35 | -3.12269 | 139.57587 | 27380 ft | 370 kts | 62° |
| 2026-04-25 09:35 | -3.10985 | 139.59808 | 26969 ft | 368 kts | 62° |
| 2026-04-25 09:35 | -3.09709 | 139.62017 | 26568 ft | 366 kts | 62° |
| 2026-04-25 09:35 | -3.08437 | 139.64219 | 26163 ft | 364 kts | 62° |
| 2026-04-25 09:36 | -3.07172 | 139.66408 | 25763 ft | 362 kts | 62° |
| 2026-04-25 09:36 | -3.05926 | 139.68562 | 25367 ft | 361 kts | 62° |
| 2026-04-25 09:36 | -3.04671 | 139.70732 | 24972 ft | 360 kts | 62° |
| 2026-04-25 09:36 | -3.03421 | 139.72895 | 24577 ft | 359 kts | 62° |
| 2026-04-25 09:37 | -3.02172 | 139.75054 | 24177 ft | 358 kts | 62° |
| 2026-04-25 09:37 | -3.00925 | 139.77211 | 23785 ft | 357 kts | 62° |
| 2026-04-25 09:37 | -2.99682 | 139.79362 | 23382 ft | 357 kts | 62° |
| 2026-04-25 09:37 | -2.98442 | 139.81507 | 22922 ft | 356 kts | 62° |
| 2026-04-25 09:38 | -2.97204 | 139.83648 | 22509 ft | 354 kts | 62° |
| 2026-04-25 09:38 | -2.95976 | 139.85772 | 22095 ft | 351 kts | 62° |
| 2026-04-25 09:38 | -2.94756 | 139.87881 | 21711 ft | 349 kts | 62° |
| 2026-04-25 09:38 | -2.93544 | 139.89976 | 21323 ft | 347 kts | 62° |
| 2026-04-25 09:39 | -2.92339 | 139.92059 | 20928 ft | 344 kts | 62° |
| 2026-04-25 09:39 | -2.91146 | 139.94122 | 20544 ft | 342 kts | 62° |
| 2026-04-25 09:39 | -2.89957 | 139.96176 | 20151 ft | 339 kts | 61° |
| 2026-04-25 09:40 | -2.87607 | 140.00240 | 19385 ft | 336 kts | 61° |
| 2026-04-25 09:40 | -2.86441 | 140.02256 | 18990 ft | 334 kts | 61° |
| 2026-04-25 09:40 | -2.85280 | 140.04262 | 18599 ft | 332 kts | 61° |
| 2026-04-25 09:40 | -2.84124 | 140.06260 | 18218 ft | 331 kts | 61° |
| 2026-04-25 09:41 | -2.82973 | 140.08248 | 17797 ft | 329 kts | 61° |
| 2026-04-25 09:41 | -2.81847 | 140.10194 | 17392 ft | 326 kts | 60° |
| 2026-04-25 09:41 | -2.80713 | 140.12152 | 17021 ft | 323 kts | 61° |
| 2026-04-25 09:41 | -2.79593 | 140.14088 | 16649 ft | 320 kts | 61° |
| 2026-04-25 09:42 | -2.78484 | 140.16004 | 16264 ft | 317 kts | 61° |
| 2026-04-25 09:42 | -2.77385 | 140.17902 | 15901 ft | 314 kts | 61° |
| 2026-04-25 09:42 | -2.76298 | 140.19781 | 15539 ft | 311 kts | 60° |
| 2026-04-25 09:42 | -2.75220 | 140.21643 | 15179 ft | 308 kts | 60° |
| 2026-04-25 09:43 | -2.74152 | 140.23488 | 14835 ft | 305 kts | 60° |
| 2026-04-25 09:43 | -2.73094 | 140.25316 | 14473 ft | 302 kts | 60° |
| 2026-04-25 09:43 | -2.72046 | 140.27126 | 14136 ft | 300 kts | 60° |
| 2026-04-25 09:43 | -2.71005 | 140.28925 | 13797 ft | 298 kts | 60° |
| 2026-04-25 09:44 | -2.69973 | 140.30707 | 13417 ft | 295 kts | 60° |
| 2026-04-25 09:44 | -2.68948 | 140.32477 | 13063 ft | 292 kts | 60° |
| 2026-04-25 09:44 | -2.67948 | 140.34205 | 12722 ft | 289 kts | 60° |
| 2026-04-25 09:44 | -2.66946 | 140.35937 | 12386 ft | 286 kts | 60° |
| 2026-04-25 09:45 | -2.65956 | 140.37646 | 12056 ft | 282 kts | 60° |
| 2026-04-25 09:45 | -2.64974 | 140.39341 | 11744 ft | 282 kts | 60° |
| 2026-04-25 09:45 | -2.63983 | 140.41054 | 11427 ft | 287 kts | 61° |
| 2026-04-25 09:45 | -2.62968 | 140.42809 | 11151 ft | 295 kts | 60° |
| 2026-04-25 09:46 | -2.61932 | 140.44597 | 10836 ft | 298 kts | 60° |
| 2026-04-25 09:46 | -2.60895 | 140.46388 | 10495 ft | 296 kts | 60° |
| 2026-04-25 09:46 | -2.59867 | 140.48162 | 10202 ft | 291 kts | 60° |
| 2026-04-25 09:46 | -2.58947 | 140.49900 | 10055 ft | 274 kts | 72° |
| 2026-04-25 09:47 | -2.58746 | 140.51742 | 9802 ft | 266 kts | 98° |
| 2026-04-25 09:47 | -2.59246 | 140.53498 | 9496 ft | 263 kts | 116° |
| 2026-04-25 09:47 | -2.60243 | 140.55042 | 9212 ft | 265 kts | 126° |
| 2026-04-25 09:47 | -2.61350 | 140.56519 | 8909 ft | 270 kts | 127° |
| 2026-04-25 09:48 | -2.62490 | 140.58024 | 8606 ft | 271 kts | 126° |
| 2026-04-25 09:48 | -2.63619 | 140.59518 | 8286 ft | 267 kts | 126° |
| 2026-04-25 09:48 | -2.64729 | 140.60998 | 7964 ft | 262 kts | 126° |
| 2026-04-25 09:48 | -2.65810 | 140.62443 | 7681 ft | 257 kts | 126° |
| 2026-04-25 09:49 | -2.66875 | 140.63879 | 7393 ft | 257 kts | 126° |
| 2026-04-25 09:49 | -2.67934 | 140.65306 | 7077 ft | 254 kts | 126° |
| 2026-04-25 09:49 | -2.68979 | 140.66718 | 6779 ft | 250 kts | 126° |
| 2026-04-25 09:49 | -2.70009 | 140.68109 | 6451 ft | 248 kts | 126° |
| 2026-04-25 09:50 | -2.71031 | 140.69490 | 6135 ft | 244 kts | 125° |
| 2026-04-25 09:50 | -2.72014 | 140.70858 | 5695 ft | 240 kts | 122° |
| 2026-04-25 09:50 | -2.73089 | 140.72115 | 5071 ft | 246 kts | 146° |
| 2026-04-25 09:50 | -2.74628 | 140.72860 | 4761 ft | 241 kts | 156° |
| 2026-04-25 09:51 | -2.76150 | 140.73483 | 4429 ft | 238 kts | 156° |
| 2026-04-25 09:51 | -2.77686 | 140.74105 | 4067 ft | 238 kts | 157° |
| 2026-04-25 09:51 | -2.79670 | 140.74971 | 3967 ft | 242 kts | 145° |
| 2026-04-25 09:51 | -2.80953 | 140.78432 | 3997 ft | 239 kts | 72° |
| 2026-04-25 09:52 | -2.78310 | 140.80616 | 3984 ft | 242 kts | 6° |
| 2026-04-25 09:52 | -2.73433 | 140.76770 | 4023 ft | 239 kts | 307° |
| 2026-04-25 09:52 | -2.70197 | 140.70898 | 4018 ft | 243 kts | 295° |
| 2026-04-25 09:52 | -2.67342 | 140.64728 | 3981 ft | 242 kts | 302° |
| 2026-04-25 09:53 | -2.64258 | 140.60443 | 3971 ft | 241 kts | 308° |
| 2026-04-25 09:53 | -2.62291 | 140.57814 | 3993 ft | 241 kts | 308° |
| 2026-04-25 09:53 | -2.61849 | 140.57219 | 3993 ft | 241 kts | 307° |
| 2026-04-25 09:54 | -2.61342 | 140.56538 | 3998 ft | 242 kts | 307° |
| 2026-04-25 09:54 | -2.60325 | 140.55204 | 3997 ft | 238 kts | 314° |
| 2026-04-25 09:54 | -2.58969 | 140.54318 | 4001 ft | 235 kts | 346° |
| 2026-04-25 09:55 | -2.57346 | 140.54285 | 4009 ft | 238 kts | 17° |
| 2026-04-25 09:55 | -2.55938 | 140.55107 | 4028 ft | 237 kts | 48° |
| 2026-04-25 09:55 | -2.55161 | 140.56538 | 4011 ft | 236 kts | 79° |
| 2026-04-25 09:55 | -2.55244 | 140.58135 | 3996 ft | 234 kts | 109° |
| 2026-04-25 09:56 | -2.56155 | 140.59457 | 4007 ft | 234 kts | 140° |
| 2026-04-25 09:56 | -2.57505 | 140.60360 | 4012 ft | 234 kts | 148° |
| 2026-04-25 09:56 | -2.58926 | 140.61173 | 4010 ft | 237 kts | 149° |
| 2026-04-25 09:56 | -2.60373 | 140.61984 | 4002 ft | 239 kts | 149° |
| 2026-04-25 09:57 | -2.61829 | 140.62793 | 4004 ft | 240 kts | 150° |
| 2026-04-25 09:57 | -2.63286 | 140.63603 | 4008 ft | 240 kts | 150° |
| 2026-04-25 09:57 | -2.64756 | 140.64416 | 3996 ft | 244 kts | 150° |
| 2026-04-25 09:57 | -2.66269 | 140.65270 | 3992 ft | 254 kts | 148° |
| 2026-04-25 09:58 | -2.67790 | 140.66173 | 3996 ft | 253 kts | 148° |
| 2026-04-25 09:58 | -2.69305 | 140.67075 | 3996 ft | 255 kts | 148° |
| 2026-04-25 09:58 | -2.70838 | 140.67990 | 3992 ft | 258 kts | 148° |
| 2026-04-25 09:58 | -2.72388 | 140.68916 | 3992 ft | 257 kts | 148° |
| 2026-04-25 09:59 | -2.73888 | 140.69809 | 3977 ft | 243 kts | 148° |
| 2026-04-25 09:59 | -2.75293 | 140.70644 | 3962 ft | 229 kts | 148° |
| 2026-04-25 09:59 | -2.76642 | 140.71447 | 3970 ft | 226 kts | 146° |
| 2026-04-25 09:59 | -2.77719 | 140.72537 | 3975 ft | 222 kts | 115° |
| 2026-04-25 10:00 | -2.78014 | 140.74037 | 3984 ft | 224 kts | 82° |
| 2026-04-25 10:00 | -2.77428 | 140.75467 | 3986 ft | 227 kts | 50° |
| 2026-04-25 10:00 | -2.76142 | 140.76365 | 3982 ft | 231 kts | 18° |
| 2026-04-25 10:00 | -2.74555 | 140.76440 | 3983 ft | 231 kts | 346° |
| 2026-04-25 10:01 | -2.73172 | 140.75662 | 3972 ft | 230 kts | 314° |
| 2026-04-25 10:01 | -2.72335 | 140.74316 | 3990 ft | 228 kts | 292° |
| 2026-04-25 10:01 | -2.71874 | 140.72792 | 3974 ft | 228 kts | 284° |
| 2026-04-25 10:01 | -2.71519 | 140.71259 | 3983 ft | 226 kts | 283° |
| 2026-04-25 10:02 | -2.71014 | 140.69800 | 3975 ft | 221 kts | 300° |
| 2026-04-25 10:02 | -2.70186 | 140.68498 | 3812 ft | 228 kts | 306° |
| 2026-04-25 10:02 | -2.69255 | 140.67194 | 3540 ft | 230 kts | 307° |
| 2026-04-25 10:02 | -2.68314 | 140.65930 | 3246 ft | 223 kts | 308° |
| 2026-04-25 10:03 | -2.67396 | 140.64702 | 3022 ft | 216 kts | 308° |
| 2026-04-25 10:03 | -2.66524 | 140.63517 | 2725 ft | 210 kts | 308° |
| 2026-04-25 10:03 | -2.65680 | 140.62375 | 2426 ft | 197 kts | 308° |
| 2026-04-25 10:03 | -2.64896 | 140.61323 | 2182 ft | 179 kts | 308° |
| 2026-04-25 10:04 | -2.64187 | 140.60373 | 1973 ft | 162 kts | 308° |
| 2026-04-25 10:04 | -2.63544 | 140.59508 | 1779 ft | 151 kts | 308° |
| 2026-04-25 10:04 | -2.62917 | 140.58668 | 1644 ft | 150 kts | 308° |
| 2026-04-25 10:04 | -2.62306 | 140.57845 | 1453 ft | 144 kts | 307° |
| 2026-04-25 10:05 | -2.61715 | 140.57047 | 1295 ft | 142 kts | 306° |
| 2026-04-25 10:05 | -2.61128 | 140.56255 | 1118 ft | 141 kts | 305° |
| 2026-04-25 10:05 | -2.60565 | 140.55447 | 902 ft | 143 kts | 301° |
| 2026-04-25 10:05 | -2.59964 | 140.54652 | 676 ft | 142 kts | 308° |
| 2026-04-25 10:06 | -2.59371 | 140.53865 | 530 ft | 138 kts | 305° |
| 2026-04-25 10:06 | -2.58801 | 140.53109 | 371 ft | 137 kts | 305° |
| 2026-04-25 10:06 | -2.58242 | 140.52367 | 296 ft | 124 kts | 305° |
| 2026-04-25 10:06 | -2.57794 | 140.51771 | 300 ft | 85 kts | 307° |
| 2026-04-25 10:07 | -2.57542 | 140.51436 | 301 ft | 48 kts | 308° |
| 2026-04-25 10:07 | -2.57438 | 140.51335 | 300 ft | 10 kts | 357° |
| 2026-04-25 10:07 | -2.57297 | 140.51380 | 302 ft | 16 kts | 21° |
| 2026-04-25 10:07 | -2.57206 | 140.51335 | 303 ft | 17 kts | 297° |
| 2026-04-25 10:08 | -2.57155 | 140.51230 | 304 ft | 17 kts | 310° |
| 2026-04-25 10:08 | -2.57120 | 140.51217 | 303 ft | 2 kts | 24° |
| 2026-04-25 10:08 | -2.57108 | 140.51227 | 304 ft | 0 kts | 37° |